createdAt,value
2022-12-06T00:01:32.252Z,3.62
2022-12-06T00:04:02.128Z,3.64
2022-12-06T00:06:32.304Z,3.68
2022-12-06T00:09:02.243Z,3.72
2022-12-06T00:11:32.717Z,3.68
2022-12-06T00:14:02.619Z,3.65
2022-12-06T00:16:31.267Z,3.66
2022-12-06T00:19:00.160Z,3.65
2022-12-06T00:21:30.674Z,3.64
2022-12-06T00:24:02.567Z,3.67
2022-12-06T00:26:31.688Z,3.72
2022-12-06T00:29:01.438Z,3.71
2022-12-06T00:31:32.220Z,3.71
2022-12-06T00:34:00.596Z,3.75
2022-12-06T00:36:30.954Z,3.73
2022-12-06T00:39:02.122Z,3.72
2022-12-06T00:41:30.461Z,3.71
2022-12-06T00:43:58.785Z,3.73
2022-12-06T00:46:29.169Z,3.80
2022-12-06T00:48:59.619Z,3.78
2022-12-06T00:51:29.617Z,3.80
2022-12-06T00:53:58.974Z,3.81
2022-12-06T00:56:28.940Z,3.85
2022-12-06T00:58:58.035Z,3.91
2022-12-06T01:01:28.160Z,3.94
2022-12-06T01:03:58.991Z,3.97
2022-12-06T01:06:32.275Z,3.96
2022-12-06T01:09:03.827Z,3.94
2022-12-06T01:11:33.609Z,3.92
2022-12-06T01:14:01.984Z,3.91
2022-12-06T01:16:32.273Z,3.91
2022-12-06T01:19:03.228Z,3.90
2022-12-06T01:21:32.159Z,3.91
2022-12-06T01:24:00.780Z,3.91
2022-12-06T01:26:35.982Z,3.91
2022-12-06T01:29:05.528Z,3.92
2022-12-06T01:31:38.658Z,3.92
2022-12-06T01:34:15.033Z,3.92
2022-12-06T01:36:43.734Z,3.91
2022-12-06T01:39:12.731Z,3.90
2022-12-06T01:41:42.644Z,3.89
2022-12-06T01:44:41.055Z,3.87
2022-12-06T01:47:14.804Z,3.84
2022-12-06T01:49:45.146Z,3.79
2022-12-06T01:52:15.239Z,3.77
2022-12-06T01:54:43.865Z,3.74
2022-12-06T01:57:16.344Z,3.70
2022-12-06T01:59:45.296Z,3.67
2022-12-06T02:02:14.571Z,3.62
2022-12-06T02:04:44.216Z,3.59
2022-12-06T02:07:13.608Z,3.57
2022-12-06T02:09:42.707Z,3.57
2022-12-06T02:12:15.203Z,3.58
2022-12-06T02:14:47.797Z,3.58
2022-12-06T02:17:30.780Z,3.57
2022-12-06T02:20:09.350Z,3.58
2022-12-06T02:23:00.170Z,3.55
2022-12-06T02:25:51.895Z,3.53
2022-12-06T02:28:56.963Z,3.52
2022-12-06T02:31:31.765Z,3.54
2022-12-06T02:34:03.557Z,3.53
2022-12-06T02:36:39.709Z,3.53
2022-12-06T02:39:13.842Z,3.52
2022-12-06T02:41:49.870Z,3.54
2022-12-06T02:44:25.323Z,3.52
2022-12-06T02:46:57.708Z,3.50
2022-12-06T02:49:28.978Z,3.49
2022-12-06T02:51:58.302Z,3.49
2022-12-06T02:54:29.000Z,3.49
2022-12-06T02:56:57.331Z,3.47
2022-12-06T02:59:25.703Z,3.49
2022-12-06T03:01:59.328Z,3.49
2022-12-06T03:04:59.196Z,3.49
2022-12-06T03:07:39.361Z,3.49
2022-12-06T03:10:25.385Z,3.48
2022-12-06T03:13:02.635Z,3.48
2022-12-06T03:15:46.165Z,3.48
2022-12-06T03:18:20.572Z,3.45
2022-12-06T03:20:55.192Z,3.44
2022-12-06T03:23:27.663Z,3.44
2022-12-06T03:25:58.825Z,3.46
2022-12-06T03:28:29.528Z,3.46
2022-12-06T03:31:02.725Z,3.46
2022-12-06T03:33:34.633Z,3.48
2022-12-06T03:36:03.478Z,3.47
2022-12-06T03:38:36.889Z,3.47
2022-12-06T03:41:07.836Z,3.47
2022-12-06T03:43:36.528Z,3.48
2022-12-06T03:46:10.652Z,3.49
2022-12-06T03:48:44.687Z,3.50
2022-12-06T03:51:18.058Z,3.51
2022-12-06T03:53:49.259Z,3.51
2022-12-06T03:56:17.816Z,3.53
2022-12-06T03:58:46.625Z,3.54
2022-12-06T04:01:15.304Z,3.55
2022-12-06T04:03:45.489Z,3.56
2022-12-06T04:06:13.970Z,3.57
2022-12-06T04:08:42.333Z,3.57
2022-12-06T04:11:10.699Z,3.54
2022-12-06T04:13:39.064Z,3.52
2022-12-06T04:16:28.211Z,3.53
2022-12-06T04:18:57.160Z,3.55
2022-12-06T04:21:43.126Z,3.55
2022-12-06T04:24:11.408Z,3.55
2022-12-06T04:26:39.736Z,3.55
2022-12-06T04:29:25.712Z,3.54
2022-12-06T04:32:11.823Z,3.53
2022-12-06T04:34:59.111Z,3.52
2022-12-06T04:37:44.900Z,3.50
2022-12-06T04:40:13.307Z,3.47
2022-12-06T04:42:59.215Z,3.47
2022-12-06T04:45:27.615Z,3.48
2022-12-06T04:47:56.112Z,3.47
2022-12-06T04:50:25.879Z,3.45
2022-12-06T04:52:54.129Z,3.44
2022-12-06T04:55:22.419Z,3.41
2022-12-06T04:57:50.768Z,3.38
2022-12-06T05:00:19.687Z,3.37
2022-12-06T05:02:48.066Z,3.33
2022-12-06T05:05:16.444Z,3.29
2022-12-06T05:08:20.608Z,3.28
2022-12-06T05:10:51.847Z,3.25
2022-12-06T05:13:20.984Z,3.25
2022-12-06T05:15:53.062Z,3.24
2022-12-06T05:18:22.244Z,3.23
2022-12-06T05:20:51.352Z,3.23
2022-12-06T05:23:19.723Z,3.21
2022-12-06T05:25:48.083Z,3.20
2022-12-06T05:28:17.732Z,3.22
2022-12-06T05:30:46.071Z,3.23
2022-12-06T05:33:16.223Z,3.24
2022-12-06T05:35:44.524Z,3.24
2022-12-06T05:38:12.856Z,3.24
2022-12-06T05:40:41.601Z,3.23
2022-12-06T05:43:10.431Z,3.22
2022-12-06T05:45:40.565Z,3.22
2022-12-06T05:48:09.517Z,3.20
2022-12-06T05:50:38.067Z,3.19
2022-12-06T05:53:06.383Z,3.18
2022-12-06T05:55:34.733Z,3.17
2022-12-06T05:58:03.059Z,3.15
2022-12-06T06:00:31.428Z,3.13
2022-12-06T06:03:01.396Z,3.12
2022-12-06T06:05:30.286Z,3.09
2022-12-06T06:07:58.721Z,3.09
2022-12-06T06:10:27.115Z,3.09
2022-12-06T06:12:55.563Z,3.09
2022-12-06T06:15:24.267Z,3.08
2022-12-06T06:17:52.572Z,3.07
2022-12-06T06:20:22.316Z,3.04
2022-12-06T06:22:50.764Z,3.04
2022-12-06T06:25:19.337Z,3.06
2022-12-06T06:27:47.816Z,3.03
2022-12-06T06:30:16.763Z,2.99
2022-12-06T06:32:45.259Z,2.93
2022-12-06T06:35:27.576Z,2.89
2022-12-06T06:37:55.912Z,2.86
2022-12-06T06:40:24.435Z,2.85
2022-12-06T06:42:52.771Z,2.83
2022-12-06T06:45:28.160Z,2.81
2022-12-06T06:47:58.447Z,2.75
2022-12-06T06:50:28.480Z,2.73
2022-12-06T06:52:56.845Z,2.71
2022-12-06T06:55:25.316Z,2.70
2022-12-06T06:57:53.675Z,2.69
2022-12-06T07:00:22.381Z,2.70
2022-12-06T07:02:51.125Z,2.70
2022-12-06T07:05:19.589Z,2.73
2022-12-06T07:07:49.375Z,2.72
2022-12-06T07:10:17.845Z,2.70
2022-12-06T07:12:46.195Z,2.67
2022-12-06T07:15:14.572Z,2.65
2022-12-06T07:17:43.131Z,2.63
2022-12-06T07:20:12.011Z,2.64
2022-12-06T07:22:40.560Z,2.62
2022-12-06T07:25:10.874Z,2.59
2022-12-06T07:27:39.215Z,2.59
2022-12-06T07:30:09.017Z,2.62
2022-12-06T07:32:38.232Z,2.63
2022-12-06T07:35:07.549Z,2.67
2022-12-06T07:37:36.808Z,2.72
2022-12-06T07:40:05.950Z,2.74
2022-12-06T07:42:53.133Z,2.79
2022-12-06T07:45:21.547Z,2.84
2022-12-06T07:47:50.149Z,2.88
2022-12-06T07:50:21.101Z,2.93
2022-12-06T07:52:51.363Z,2.98
2022-12-06T07:55:20.354Z,3.01
2022-12-06T07:57:50.133Z,3.08
2022-12-06T08:00:19.311Z,3.13
2022-12-06T08:02:47.923Z,3.17
2022-12-06T08:05:16.378Z,3.23
2022-12-06T08:07:44.856Z,3.28
2022-12-06T08:10:13.513Z,3.34
2022-12-06T08:12:41.930Z,3.38
2022-12-06T08:15:13.550Z,3.45
2022-12-06T08:17:46.454Z,3.50
2022-12-06T08:20:14.956Z,3.58
2022-12-06T08:22:43.475Z,3.65
2022-12-06T08:25:11.878Z,3.70
2022-12-06T08:27:40.231Z,3.72
2022-12-06T08:30:09.591Z,3.79
2022-12-06T08:32:39.440Z,3.83
2022-12-06T08:35:08.253Z,3.91
2022-12-06T08:37:36.556Z,3.97
2022-12-06T08:40:05.481Z,4.04
2022-12-06T08:42:33.796Z,4.09
2022-12-06T08:45:02.143Z,4.10
2022-12-06T08:47:30.556Z,4.12
2022-12-06T08:50:00.496Z,4.12
2022-12-06T08:52:29.140Z,4.15
2022-12-06T08:54:57.508Z,4.17
2022-12-06T08:57:26.107Z,4.18
2022-12-06T08:59:55.584Z,4.19
2022-12-06T09:02:23.928Z,4.22
2022-12-06T09:04:52.802Z,4.28
2022-12-06T09:07:23.079Z,4.33
2022-12-06T09:09:51.383Z,4.35
2022-12-06T09:12:19.756Z,4.38
2022-12-06T09:14:48.084Z,4.40
2022-12-06T09:17:16.388Z,4.45
2022-12-06T09:19:44.937Z,4.48
2022-12-06T09:22:13.289Z,4.52
2022-12-06T09:24:42.955Z,4.53
2022-12-06T09:27:11.247Z,4.61
2022-12-06T09:29:40.919Z,4.66
2022-12-06T09:32:09.492Z,4.72
2022-12-06T09:34:37.861Z,4.80
2022-12-06T09:37:11.779Z,4.87
2022-12-06T09:39:46.680Z,4.92
2022-12-06T09:42:51.922Z,4.96
2022-12-06T09:45:45.371Z,4.98
2022-12-06T09:48:33.485Z,5.02
2022-12-06T09:51:10.565Z,5.06
2022-12-06T09:53:54.025Z,5.10
2022-12-06T09:56:28.572Z,5.13
2022-12-06T09:59:08.677Z,5.16
2022-12-06T10:01:52.035Z,5.19
2022-12-06T10:04:46.983Z,5.23
2022-12-06T10:07:23.551Z,5.29
2022-12-06T10:10:04.608Z,5.35
2022-12-06T10:12:53.623Z,5.44
2022-12-06T10:15:32.331Z,5.53
2022-12-06T10:18:15.532Z,5.63
2022-12-06T10:20:51.456Z,5.73
2022-12-06T10:23:33.801Z,5.83
2022-12-06T10:26:13.442Z,5.97
2022-12-06T10:28:48.328Z,6.07
2022-12-06T10:31:24.049Z,6.16
2022-12-06T10:33:58.196Z,6.21
2022-12-06T10:36:39.913Z,6.26
2022-12-06T10:39:16.535Z,6.29
2022-12-06T10:41:51.712Z,6.30
2022-12-06T10:44:29.900Z,6.27
2022-12-06T10:47:05.157Z,6.24
2022-12-06T10:49:42.792Z,6.25
2022-12-06T10:52:23.966Z,6.25
2022-12-06T10:54:59.832Z,6.28
2022-12-06T10:57:35.278Z,6.35
2022-12-06T11:00:13.310Z,6.40
2022-12-06T11:02:50.563Z,6.44
2022-12-06T11:05:24.252Z,6.46
2022-12-06T11:08:00.275Z,6.49
2022-12-06T11:10:31.911Z,6.55
2022-12-06T11:13:10.765Z,6.61
2022-12-06T11:15:48.119Z,6.65
2022-12-06T11:18:18.303Z,6.77
2022-12-06T11:20:51.960Z,6.90
2022-12-06T11:23:26.972Z,7.07
2022-12-06T11:26:15.187Z,7.17
2022-12-06T11:28:49.431Z,7.26
2022-12-06T11:31:26.507Z,7.28
2022-12-06T11:33:55.484Z,7.19
2022-12-06T11:36:25.505Z,7.02
2022-12-06T11:38:54.296Z,6.81
2022-12-06T11:41:26.359Z,6.64
2022-12-06T11:43:56.188Z,6.49
2022-12-06T11:46:26.831Z,6.36
2022-12-06T11:48:58.105Z,6.28
2022-12-06T11:51:26.959Z,6.19
2022-12-06T11:54:01.759Z,6.09
2022-12-06T11:56:32.690Z,6.01
2022-12-06T11:59:20.540Z,5.95
2022-12-06T12:01:52.657Z,5.88
2022-12-06T12:04:27.261Z,5.84
2022-12-06T12:06:59.808Z,5.82
2022-12-06T12:09:32.478Z,5.79
2022-12-06T12:12:05.111Z,5.76
2022-12-06T12:14:39.694Z,5.70
2022-12-06T12:17:20.460Z,5.65
2022-12-06T12:19:53.391Z,5.60
2022-12-06T12:22:26.350Z,5.56
2022-12-06T12:27:49.552Z,5.56
2022-12-06T12:30:27.550Z,5.50
2022-12-06T12:33:22.938Z,5.47
2022-12-06T12:35:54.684Z,5.43
2022-12-06T12:38:38.259Z,5.42
2022-12-06T12:41:25.185Z,5.39
2022-12-06T12:44:36.063Z,5.35
2022-12-06T12:46:53.794Z,5.32
2022-12-06T12:49:27.941Z,5.30
2022-12-06T12:51:57.297Z,5.24
2022-12-06T12:54:29.356Z,5.23
2022-12-06T12:56:58.789Z,5.21
2022-12-06T12:59:28.960Z,5.20
2022-12-06T13:02:03.136Z,5.18
2022-12-06T13:04:42.425Z,5.16
2022-12-06T13:07:20.980Z,5.14
2022-12-06T13:10:00.089Z,5.12
2022-12-06T13:12:34.301Z,5.11
2022-12-06T13:15:07.784Z,5.09
2022-12-06T13:17:38.892Z,5.09
2022-12-06T13:20:22.988Z,5.10
2022-12-06T13:22:54.903Z,5.10
2022-12-06T13:25:23.460Z,5.09
2022-12-06T13:27:54.857Z,5.10
2022-12-06T13:30:25.818Z,5.10
2022-12-06T13:32:58.522Z,5.10
2022-12-06T13:35:30.983Z,5.10
2022-12-06T13:38:01.608Z,5.10
2022-12-06T13:40:41.164Z,5.11
2022-12-06T13:43:54.360Z,5.11
2022-12-06T13:46:33.725Z,5.10
2022-12-06T13:49:05.106Z,5.08
2022-12-06T13:51:45.922Z,5.06
2022-12-06T13:54:41.159Z,5.04
2022-12-06T13:57:31.217Z,5.02
2022-12-06T13:59:59.911Z,5.01
2022-12-06T14:02:52.475Z,5.01
2022-12-06T14:08:35.028Z,5.00
2022-12-06T14:11:19.551Z,5.01
2022-12-06T14:13:49.892Z,5.00
2022-12-06T14:16:26.822Z,4.98
2022-12-06T14:18:55.291Z,4.98
2022-12-06T14:21:27.633Z,4.97
2022-12-06T14:23:57.999Z,4.96
2022-12-06T14:26:28.016Z,4.96
2022-12-06T14:28:59.003Z,4.96
2022-12-06T14:31:30.456Z,4.97
2022-12-06T14:33:59.160Z,4.96
2022-12-06T14:36:30.337Z,4.95
2022-12-06T14:39:03.097Z,4.94
2022-12-06T14:41:52.041Z,4.95
2022-12-06T14:44:21.527Z,4.94
2022-12-06T14:46:50.812Z,4.92
2022-12-06T14:49:39.714Z,4.94
2022-12-06T14:52:23.022Z,4.93
2022-12-06T14:54:53.761Z,4.93
2022-12-06T14:57:27.470Z,4.93
2022-12-06T15:00:18.471Z,4.92
2022-12-06T15:03:03.650Z,4.90
2022-12-06T15:05:38.111Z,4.89
2022-12-06T15:08:33.558Z,4.85
2022-12-06T15:11:06.616Z,4.85
2022-12-06T15:13:34.060Z,4.82
2022-12-06T15:16:17.415Z,4.79
2022-12-06T15:18:56.852Z,4.76
2022-12-06T15:21:25.312Z,4.74
2022-12-06T15:23:54.595Z,4.75
2022-12-06T15:26:25.752Z,4.78
2022-12-06T15:28:54.031Z,4.81
2022-12-06T15:31:26.934Z,4.83
2022-12-06T15:33:56.282Z,4.87
2022-12-06T15:36:26.751Z,4.89
2022-12-06T15:38:55.313Z,4.89
2022-12-06T15:41:27.543Z,4.87
2022-12-06T15:43:57.565Z,4.85
2022-12-06T15:46:27.987Z,4.83
2022-12-06T15:48:57.129Z,4.81
2022-12-06T15:51:28.076Z,4.81
2022-12-06T15:53:57.951Z,4.80
2022-12-06T15:56:31.011Z,4.80
2022-12-06T15:58:59.375Z,4.81
2022-12-06T16:01:29.885Z,4.80
2022-12-06T16:03:59.041Z,4.82
2022-12-06T16:06:29.315Z,4.80
2022-12-06T16:08:57.891Z,4.80
2022-12-06T16:11:28.079Z,4.79
2022-12-06T16:13:56.543Z,4.77
2022-12-06T16:16:24.985Z,4.77
2022-12-06T16:18:53.939Z,4.79
2022-12-06T16:21:24.470Z,4.81
2022-12-06T16:24:13.875Z,4.81
2022-12-06T16:26:45.244Z,4.82
2022-12-06T16:29:16.022Z,4.83
2022-12-06T16:31:45.240Z,4.83
2022-12-06T16:34:13.872Z,4.82
2022-12-06T16:36:57.063Z,4.83
2022-12-06T16:39:25.620Z,4.84
2022-12-06T16:41:55.324Z,4.85
2022-12-06T16:44:23.679Z,4.84
2022-12-06T16:46:52.727Z,4.85
2022-12-06T16:52:11.711Z,4.84
2022-12-06T16:54:41.618Z,4.85
2022-12-06T16:57:12.343Z,4.87
2022-12-06T16:59:42.506Z,4.86
2022-12-06T17:02:26.393Z,4.86
2022-12-06T17:04:55.600Z,4.85
2022-12-06T17:07:24.625Z,4.81
2022-12-06T17:09:53.104Z,4.79
2022-12-06T17:12:22.865Z,4.79
2022-12-06T17:14:51.855Z,4.82
2022-12-06T17:17:22.722Z,4.82
2022-12-06T17:19:51.508Z,4.82
2022-12-06T17:22:20.240Z,4.87
2022-12-06T17:24:48.651Z,4.89
2022-12-06T17:27:17.711Z,4.87
2022-12-06T17:29:47.400Z,4.85
2022-12-06T17:32:15.722Z,4.84
2022-12-06T17:34:44.057Z,4.83
2022-12-06T17:37:12.627Z,4.83
2022-12-06T17:39:40.996Z,4.80
2022-12-06T17:42:28.541Z,4.76
2022-12-06T17:44:58.878Z,4.72
2022-12-06T17:47:27.402Z,4.67
2022-12-06T17:49:56.482Z,4.64
2022-12-06T17:52:24.871Z,4.61
2022-12-06T17:54:53.195Z,4.56
2022-12-06T17:57:21.563Z,4.51
2022-12-06T17:59:50.198Z,4.49
2022-12-06T18:02:25.747Z,4.45
2022-12-06T18:04:56.029Z,4.45
2022-12-06T18:07:24.804Z,4.47
2022-12-06T18:09:54.038Z,4.50
2022-12-06T18:12:22.379Z,4.54
2022-12-06T18:14:50.730Z,4.61
2022-12-06T18:17:20.479Z,4.62
2022-12-06T18:19:48.847Z,4.59
2022-12-06T18:22:17.352Z,4.57
2022-12-06T18:24:45.729Z,4.58
2022-12-06T18:27:14.150Z,4.58
2022-12-06T18:29:42.595Z,4.58
2022-12-06T18:32:11.001Z,4.54
2022-12-06T18:34:41.486Z,4.51
2022-12-06T18:37:10.088Z,4.49
2022-12-06T18:39:38.520Z,4.46
2022-12-06T18:42:07.625Z,4.48
2022-12-06T18:44:35.940Z,4.50
2022-12-06T18:47:04.439Z,4.49
2022-12-06T18:49:32.759Z,4.47
2022-12-06T18:52:03.067Z,4.42
2022-12-06T18:54:31.705Z,4.42
2022-12-06T18:57:00.223Z,4.42
2022-12-06T18:59:29.423Z,4.42
2022-12-06T19:01:57.912Z,4.41
2022-12-06T19:04:26.373Z,4.38
2022-12-06T19:06:55.476Z,4.37
2022-12-06T19:09:29.224Z,4.37
2022-12-06T19:11:59.240Z,4.34
2022-12-06T19:14:29.595Z,4.32
2022-12-06T19:17:02.494Z,4.30
2022-12-06T19:19:33.189Z,4.31
2022-12-06T19:22:05.145Z,4.34
2022-12-06T19:24:37.106Z,4.39
2022-12-06T19:27:06.896Z,4.49
2022-12-06T19:29:36.910Z,4.49
2022-12-06T19:32:08.699Z,4.49
2022-12-06T19:34:37.535Z,4.51
2022-12-06T19:37:05.963Z,4.50
2022-12-06T19:39:35.707Z,4.51
2022-12-06T19:42:21.721Z,4.51
2022-12-06T19:44:50.177Z,4.50
2022-12-06T19:47:18.471Z,4.50
2022-12-06T19:49:46.902Z,4.53
2022-12-06T19:52:15.473Z,4.53
2022-12-06T19:54:45.197Z,4.53
2022-12-06T19:57:13.540Z,4.52
2022-12-06T19:59:41.938Z,4.53
2022-12-06T20:02:13.503Z,4.56
2022-12-06T20:04:43.959Z,4.58
2022-12-06T20:07:12.323Z,4.58
2022-12-06T20:09:40.786Z,4.60
2022-12-06T20:12:13.201Z,4.60
2022-12-06T20:14:44.073Z,4.61
2022-12-06T20:17:15.053Z,4.58
2022-12-06T20:19:46.209Z,4.57
2022-12-06T20:22:15.971Z,4.54
2022-12-06T20:24:44.849Z,4.54
2022-12-06T20:27:14.770Z,4.54
2022-12-06T20:29:43.385Z,4.54
2022-12-06T20:32:11.866Z,4.54
2022-12-06T20:34:40.255Z,4.56
2022-12-06T20:37:08.894Z,4.57
2022-12-06T20:39:37.198Z,4.57
2022-12-06T20:42:06.957Z,4.56
2022-12-06T20:44:37.069Z,4.53
2022-12-06T20:47:11.649Z,4.50
2022-12-06T20:49:40.096Z,4.49
2022-12-06T20:52:08.409Z,4.50
2022-12-06T20:54:36.875Z,4.49
2022-12-06T20:57:08.364Z,4.50
2022-12-06T20:59:39.429Z,4.51
2022-12-06T21:02:08.407Z,4.51
2022-12-06T21:04:36.760Z,4.51
2022-12-06T21:07:05.189Z,4.51
2022-12-06T21:09:33.544Z,4.50
2022-12-06T21:12:01.880Z,4.48
2022-12-06T21:14:30.378Z,4.47
2022-12-06T21:17:00.095Z,4.50
2022-12-06T21:19:28.419Z,4.52
2022-12-06T21:21:59.473Z,4.50
2022-12-06T21:24:27.939Z,4.49
2022-12-06T21:26:56.235Z,4.43
2022-12-06T21:29:30.780Z,4.42
2022-12-06T21:32:02.418Z,4.41
2022-12-06T21:34:30.771Z,4.43
2022-12-06T21:36:59.475Z,4.43
2022-12-06T21:39:27.833Z,4.44
2022-12-06T21:41:56.166Z,4.43
2022-12-06T21:44:25.156Z,4.43
2022-12-06T21:46:54.453Z,4.44
2022-12-06T21:49:24.413Z,4.45
2022-12-06T21:52:01.033Z,4.44
2022-12-06T21:54:31.714Z,4.43
2022-12-06T21:57:00.001Z,4.42
2022-12-06T21:59:28.695Z,4.40
2022-12-06T22:01:57.161Z,4.39
2022-12-06T22:04:26.976Z,4.36
2022-12-06T22:06:55.321Z,4.33
2022-12-06T22:09:23.729Z,4.37
2022-12-06T22:11:52.151Z,4.36
2022-12-06T22:14:20.711Z,4.37
2022-12-06T22:16:50.088Z,4.37
2022-12-06T22:19:18.475Z,4.39
2022-12-06T22:21:48.781Z,4.41
2022-12-06T22:24:17.385Z,4.44
2022-12-06T22:26:45.661Z,4.46
2022-12-06T22:29:14.358Z,4.49
2022-12-06T22:31:43.060Z,4.52
2022-12-06T22:34:11.516Z,4.51
2022-12-06T22:36:39.954Z,4.47
2022-12-06T22:39:09.641Z,4.47
2022-12-06T22:41:38.073Z,4.46
2022-12-06T22:44:08.429Z,4.43
2022-12-06T22:46:37.647Z,4.43
2022-12-06T22:49:07.052Z,4.40
2022-12-06T22:51:37.222Z,4.40
2022-12-06T22:54:07.878Z,4.38
2022-12-06T22:56:39.036Z,4.38
2022-12-06T22:59:08.171Z,4.39
2022-12-06T23:01:36.896Z,4.42
2022-12-06T23:04:07.301Z,4.46
2022-12-06T23:06:36.824Z,4.49
2022-12-06T23:09:05.651Z,4.50
2022-12-06T23:11:35.871Z,4.53
2022-12-06T23:14:07.998Z,4.53
2022-12-06T23:16:36.647Z,4.53
2022-12-06T23:19:05.475Z,4.53
2022-12-06T23:21:35.796Z,4.52
2022-12-06T23:24:06.965Z,4.50
2022-12-06T23:26:36.955Z,4.49
2022-12-06T23:29:07.004Z,4.43
2022-12-06T23:31:37.043Z,4.44
2022-12-06T23:34:07.307Z,4.39
2022-12-06T23:36:36.908Z,4.34
2022-12-06T23:39:06.860Z,4.36
2022-12-06T23:41:36.007Z,4.38
2022-12-06T23:44:06.177Z,4.37
2022-12-06T23:46:36.265Z,4.36
2022-12-06T23:49:05.774Z,4.29
2022-12-06T23:51:35.694Z,4.29
2022-12-06T23:54:06.736Z,4.31
2022-12-06T23:56:36.963Z,4.36
2022-12-06T23:59:09.408Z,4.36
